Time;durP1;ratioP1;P1;durP2;ratioP2;P2;SDS_P1;SDS_P2;PMS_P1;PMS_P2;Temp;Humidity;BMP_temperature;BMP_pressure;BME280_temperature;BME280_humidity;BME280_pressure;Samples;Min_cycle;Max_cycle;Signal;HPM_P1;HPM_P2
2021/08/14 00:00:28;;;;;;;;;;;;;;;31.45;32.82;100646.38;4314322;33;34267;-87
2021/08/14 00:02:57;;;;;;;;;;;;;;;31.06;33.59;100638.81;4314533;33;35359;-87
2021/08/14 00:05:25;;;;;;;;;;;;;;;30.32;34.93;100636.38;4302098;33;33810;-87
2021/08/14 00:07:53;;;;;;;;;;;;;;;30.50;34.72;100632.84;4302193;33;35742;-88
2021/08/14 00:10:20;;;;;;;;;;;;;;;31.03;33.68;100633.69;4302446;33;33965;-87
2021/08/14 00:12:48;;;;;;;;;;;;;;;31.29;33.22;100643.63;4314662;33;33328;-88
2021/08/14 00:15:16;;;;;;;;;;;;;;;30.19;35.21;100646.66;4314513;33;34512;-87
2021/08/14 00:17:44;;;;;;;;;;;;;;;30.39;34.98;100641.97;4314601;33;34379;-87
2021/08/14 00:20:11;;;;;;;;;;;;;;;29.29;37.42;100644.63;4302182;33;35018;-87
2021/08/14 00:22:39;;;;;;;;;;;;;;;28.49;39.31;100652.09;4314374;33;35073;-87
2021/08/14 00:25:07;;;;;;;;;;;;;;;27.61;41.45;100647.44;4314060;33;34449;-87
2021/08/14 00:27:34;;;;;;;;;;;;;;;27.89;40.82;100650.31;4314271;33;35752;-88
2021/08/14 00:30:02;;;;;;;;;;;;;;;28.21;40.06;100649.25;4301826;33;35950;-87
2021/08/14 00:32:30;;;;;;;;;;;;;;;27.29;42.08;100648.41;4314484;33;34735;-86
2021/08/14 00:34:57;;;;;;;;;;;;;;;27.56;41.77;100641.66;4314314;33;34417;-87
2021/08/14 00:37:25;;;;;;;;;;;;;;;27.46;41.73;100648.81;4314267;33;35177;-87
2021/08/14 00:39:53;;;;;;;;;;;;;;;28.51;39.25;100647.44;4311572;33;33644;-88
2021/08/14 00:42:20;;;;;;;;;;;;;;;29.15;37.61;100640.53;4312168;33;33110;-86
2021/08/14 00:44:48;;;;;;;;;;;;;;;29.22;37.55;100643.47;4314039;33;34316;-86
2021/08/14 00:47:15;;;;;;;;;;;;;;;29.75;36.47;100635.78;4301906;33;33296;-87
2021/08/14 00:49:43;;;;;;;;;;;;;;;28.96;38.03;100638.78;4301630;33;36041;-88
2021/08/14 00:52:10;;;;;;;;;;;;;;;29.72;36.59;100638.78;4302050;33;32794;-87
2021/08/14 00:54:38;;;;;;;;;;;;;;;29.79;36.50;100634.47;4313879;33;34584;-86
2021/08/14 00:57:06;;;;;;;;;;;;;;;29.36;37.37;100633.28;4313656;33;36309;-87
2021/08/14 00:59:34;;;;;;;;;;;;;;;30.07;35.80;100635.28;4313863;33;34867;-87
2021/08/14 01:02:03;;;;;;;;;;;;;;;29.80;36.31;100633.50;4313774;33;33388;-87
2021/08/14 01:04:31;;;;;;;;;;;;;;;30.07;35.82;100634.47;4315725;33;34206;-88
2021/08/14 01:06:59;;;;;;;;;;;;;;;29.80;36.38;100630.81;4303991;33;35852;-87
2021/08/14 01:09:27;;;;;;;;;;;;;;;29.59;36.82;100628.38;4316162;33;34841;-87
2021/08/14 01:11:56;;;;;;;;;;;;;;;29.36;37.19;100636.84;4315980;33;35096;-88
2021/08/14 01:14:23;;;;;;;;;;;;;;;29.42;37.01;100633.53;4315779;33;35289;-87
2021/08/14 01:16:52;;;;;;;;;;;;;;;28.28;39.57;100628.09;4315807;33;35365;-87
2021/08/14 01:19:19;;;;;;;;;;;;;;;28.69;38.87;100636.00;4316167;33;34126;-87
2021/08/14 01:21:48;;;;;;;;;;;;;;;29.24;37.78;100632.63;4315686;33;33319;-88
2021/08/14 01:24:16;;;;;;;;;;;;;;;29.73;36.74;100632.38;4315509;33;34690;-88
2021/08/14 01:26:44;;;;;;;;;;;;;;;29.48;36.99;100632.94;4315485;33;35474;-86
2021/08/14 01:29:11;;;;;;;;;;;;;;;29.12;37.78;100634.66;4315945;33;36258;-87
2021/08/14 01:31:40;;;;;;;;;;;;;;;29.44;37.03;100636.09;4315961;33;33693;-88
2021/08/14 01:34:07;;;;;;;;;;;;;;;29.21;37.42;100633.75;4303536;33;35670;-87
2021/08/14 01:36:35;;;;;;;;;;;;;;;30.06;35.78;100628.25;4303535;33;36646;-87
2021/08/14 01:39:04;;;;;;;;;;;;;;;29.77;36.41;100631.09;4303529;33;34477;-86
2021/08/14 01:41:31;;;;;;;;;;;;;;;29.75;36.44;100631.25;4314495;33;33814;-87
2021/08/14 01:44:03;;;;;;;;;;;;;;;29.51;37.19;100631.81;4303808;33;35804;-87
2021/08/14 01:46:32;;;;;;;;;;;;;;;29.52;37.21;100630.81;4303371;33;34787;-87
2021/08/14 01:49:00;;;;;;;;;;;;;;;29.19;38.06;100637.59;4303392;33;35707;-86
2021/08/14 01:51:27;;;;;;;;;;;;;;;28.96;38.32;100630.72;4315934;33;34889;-87
2021/08/14 01:53:56;;;;;;;;;;;;;;;28.90;38.50;100622.44;4303554;33;34571;-88
2021/08/14 01:56:24;;;;;;;;;;;;;;;29.53;37.25;100635.22;4315758;33;34261;-87
2021/08/14 01:58:52;;;;;;;;;;;;;;;29.60;37.12;100625.53;4303296;33;35941;-87
2021/08/14 02:01:19;;;;;;;;;;;;;;;29.49;37.33;100625.75;4315907;33;33781;-86
2021/08/14 02:03:47;;;;;;;;;;;;;;;28.87;38.54;100618.19;4315554;33;35015;-88
2021/08/14 02:06:15;;;;;;;;;;;;;;;29.47;37.31;100631.25;4315442;33;35400;-87
2021/08/14 02:08:43;;;;;;;;;;;;;;;29.43;37.25;100629.87;4315533;33;35486;-87
2021/08/14 02:11:12;;;;;;;;;;;;;;;28.53;39.02;100634.72;4303330;33;33035;-87
2021/08/14 02:13:40;;;;;;;;;;;;;;;29.13;37.83;100622.91;4315671;33;34359;-87
2021/08/14 02:16:08;;;;;;;;;;;;;;;29.26;37.47;100622.59;4303241;33;35891;-87
2021/08/14 02:18:36;;;;;;;;;;;;;;;29.74;36.51;100615.28;4303289;33;33737;-87
2021/08/14 02:21:04;;;;;;;;;;;;;;;29.92;36.15;100616.19;4315635;33;33224;-87
2021/08/14 02:23:31;;;;;;;;;;;;;;;29.68;36.63;100614.06;4303330;33;34724;-87
2021/08/14 02:26:00;;;;;;;;;;;;;;;29.71;36.56;100620.97;4315609;33;34227;-87
2021/08/14 02:28:28;;;;;;;;;;;;;;;29.52;37.01;100617.41;4302841;33;34806;-87
2021/08/14 02:30:55;;;;;;;;;;;;;;;28.88;38.23;100619.91;4303314;33;34957;-87
2021/08/14 02:33:23;;;;;;;;;;;;;;;29.37;37.32;100611.69;4316697;33;34563;-87
2021/08/14 02:35:51;;;;;;;;;;;;;;;29.64;36.69;100610.81;4315728;33;33887;-87
2021/08/14 02:38:18;;;;;;;;;;;;;;;29.72;36.60;100614.59;4303287;33;34874;-87
2021/08/14 02:40:46;;;;;;;;;;;;;;;29.24;37.66;100608.47;4300605;33;33942;-88
2021/08/14 02:43:14;;;;;;;;;;;;;;;29.61;36.97;100615.63;4312857;33;35454;-88
2021/08/14 02:45:43;;;;;;;;;;;;;;;29.55;37.01;100611.72;4312965;33;34921;-87
2021/08/14 02:48:11;;;;;;;;;;;;;;;29.19;37.63;100613.44;4300548;33;33654;-88
2021/08/14 02:50:45;;;;;;;;;;;;;;;28.80;38.50;100617.94;4300963;33;32245;-87
2021/08/14 02:53:13;;;;;;;;;;;;;;;29.13;37.73;100613.03;4313183;33;34394;-87
2021/08/14 02:55:40;;;;;;;;;;;;;;;28.46;39.14;100614.84;4312968;33;35229;-88
2021/08/14 02:58:08;;;;;;;;;;;;;;;29.02;37.90;100617.72;4312621;33;35073;-88
2021/08/14 03:00:36;;;;;;;;;;;;;;;29.28;37.31;100617.94;4302650;33;32570;-87
2021/08/14 03:03:03;;;;;;;;;;;;;;;29.26;37.30;100619.91;4315517;33;34153;-87
2021/08/14 03:05:34;;;;;;;;;;;;;;;29.24;37.32;100620.03;4316484;33;34450;-87
2021/08/14 03:08:02;;;;;;;;;;;;;;;28.81;38.15;100622.31;4315068;33;35146;-87
2021/08/14 03:10:29;;;;;;;;;;;;;;;28.82;38.24;100615.94;4314733;33;34476;-87
2021/08/14 03:12:57;;;;;;;;;;;;;;;29.17;37.56;100618.94;4315046;33;33543;-87
2021/08/14 03:15:25;;;;;;;;;;;;;;;29.34;37.25;100625.38;4315007;33;35328;-87
2021/08/14 03:17:54;;;;;;;;;;;;;;;29.03;37.61;100625.62;4314899;33;34466;-86
2021/08/14 03:20:21;;;;;;;;;;;;;;;29.22;37.29;100622.00;4302782;33;34633;-88
2021/08/14 03:22:49;;;;;;;;;;;;;;;29.19;37.42;100627.69;4314996;33;36388;-87
2021/08/14 03:25:17;;;;;;;;;;;;;;;29.34;37.13;100621.88;4314319;33;34137;-87
2021/08/14 03:27:44;;;;;;;;;;;;;;;29.21;37.29;100623.03;4315170;33;34453;-87
2021/08/14 03:30:14;;;;;;;;;;;;;;;28.47;38.84;100630.78;4314817;33;35308;-88
2021/08/14 03:32:42;;;;;;;;;;;;;;;28.62;38.66;100633.87;4302731;33;35028;-88
2021/08/14 03:35:10;;;;;;;;;;;;;;;28.55;38.70;100635.44;4314905;33;33520;-87
2021/08/14 03:37:37;;;;;;;;;;;;;;;28.99;37.83;100634.97;4316543;33;35022;-87
2021/08/14 03:40:06;;;;;;;;;;;;;;;29.40;36.98;100640.06;4300647;33;32161;-87
2021/08/14 03:42:33;;;;;;;;;;;;;;;28.78;38.33;100648.56;4314285;32;34807;-87
2021/08/14 03:45:02;;;;;;;;;;;;;;;29.34;37.31;100648.72;4314975;33;34308;-88
2021/08/14 03:47:30;;;;;;;;;;;;;;;28.60;38.80;100659.12;4314871;33;34969;-87
2021/08/14 03:49:57;;;;;;;;;;;;;;;27.99;40.08;100653.87;4315158;33;34468;-87
2021/08/14 03:52:25;;;;;;;;;;;;;;;28.24;39.54;100638.28;4314789;33;35396;-87
2021/08/14 03:54:52;;;;;;;;;;;;;;;27.94;40.07;100649.91;4314778;33;33903;-88
2021/08/14 03:57:20;;;;;;;;;;;;;;;27.98;40.02;100654.84;4314733;33;35313;-87
2021/08/14 03:59:48;;;;;;;;;;;;;;;26.69;43.21;100652.69;4302491;33;34363;-87
2021/08/14 04:02:15;;;;;;;;;;;;;;;26.55;43.71;100654.72;4314528;33;35701;-87
2021/08/14 04:04:43;;;;;;;;;;;;;;;26.77;43.29;100664.44;4302560;33;35444;-86
2021/08/14 04:07:13;;;;;;;;;;;;;;;27.22;42.21;100662.47;4314774;33;34869;-87
2021/08/14 04:09:41;;;;;;;;;;;;;;;27.61;41.24;100663.50;4302374;33;32769;-87
2021/08/14 04:12:09;;;;;;;;;;;;;;;27.45;41.50;100666.66;4314597;33;34168;-87
2021/08/14 04:14:36;;;;;;;;;;;;;;;28.56;39.08;100665.75;4302344;33;34725;-87
2021/08/14 04:17:05;;;;;;;;;;;;;;;28.18;39.76;100664.78;4314556;33;34434;-87
2021/08/14 04:19:32;;;;;;;;;;;;;;;29.15;37.67;100662.00;4314692;33;32778;-87
2021/08/14 04:22:00;;;;;;;;;;;;;;;28.59;38.76;100669.00;4314593;33;34867;-87
2021/08/14 04:24:28;;;;;;;;;;;;;;;28.26;39.37;100662.25;4302029;33;33600;-88
2021/08/14 04:26:56;;;;;;;;;;;;;;;28.98;37.93;100666.31;4314225;33;34874;-88
2021/08/14 04:29:23;;;;;;;;;;;;;;;29.37;37.15;100667.19;4314724;33;33281;-88
2021/08/14 04:31:51;;;;;;;;;;;;;;;29.80;36.30;100673.78;4314239;33;34273;-87
2021/08/14 04:34:19;;;;;;;;;;;;;;;28.81;38.50;100675.06;4302046;33;37463;-88
2021/08/14 04:36:47;;;;;;;;;;;;;;;28.22;40.05;100669.72;4314485;33;33746;-87
2021/08/14 04:39:14;;;;;;;;;;;;;;;27.94;40.88;100666.81;4303685;33;32761;-87
2021/08/14 04:41:42;;;;;;;;;;;;;;;28.44;39.87;100673.09;4311409;33;34005;-87
2021/08/14 04:44:10;;;;;;;;;;;;;;;28.40;40.09;100672.56;4311076;33;34410;-88
2021/08/14 04:46:37;;;;;;;;;;;;;;;28.69;39.35;100679.75;4315941;33;35713;-87
2021/08/14 04:49:05;;;;;;;;;;;;;;;28.62;39.53;100678.59;4316388;33;33611;-87
2021/08/14 04:51:32;;;;;;;;;;;;;;;28.32;40.26;100672.38;4316424;33;34536;-86
2021/08/14 04:54:00;;;;;;;;;;;;;;;28.00;40.93;100679.66;4315953;33;36802;-88
2021/08/14 04:56:27;;;;;;;;;;;;;;;28.86;39.08;100680.84;4303629;33;36753;-87
2021/08/14 04:58:55;;;;;;;;;;;;;;;28.94;38.95;100683.66;4316044;33;33746;-87
2021/08/14 05:01:22;;;;;;;;;;;;;;;28.91;38.95;100691.16;4303779;33;33606;-87
2021/08/14 05:03:50;;;;;;;;;;;;;;;28.80;39.25;100682.28;4304303;33;33403;-87
2021/08/14 05:06:18;;;;;;;;;;;;;;;28.70;39.65;100686.81;4317290;33;34409;-87
2021/08/14 05:08:45;;;;;;;;;;;;;;;28.78;39.57;100683.41;4304068;33;34494;-85
2021/08/14 05:11:14;;;;;;;;;;;;;;;29.09;38.83;100684.06;4316605;33;34242;-86
2021/08/14 05:13:41;;;;;;;;;;;;;;;29.56;37.92;100683.22;4303683;33;36703;-86
2021/08/14 05:16:09;;;;;;;;;;;;;;;29.37;38.32;100692.22;4304376;33;33947;-86
2021/08/14 05:18:37;;;;;;;;;;;;;;;29.26;38.38;100678.97;4316226;33;34228;-86
2021/08/14 05:21:04;;;;;;;;;;;;;;;29.26;38.39;100685.16;4303780;33;34491;-86
2021/08/14 05:23:32;;;;;;;;;;;;;;;29.70;37.48;100687.22;4315951;33;33410;-87
2021/08/14 05:25:59;;;;;;;;;;;;;;;29.92;37.00;100691.41;4315694;33;33488;-86
2021/08/14 05:28:32;;;;;;;;;;;;;;;30.56;35.79;100696.75;4315708;33;33579;-87
2021/08/14 05:30:59;;;;;;;;;;;;;;;30.32;36.47;100692.81;4315992;33;34755;-86
2021/08/14 05:33:27;;;;;;;;;;;;;;;30.51;36.26;100693.69;4316145;33;33055;-87
2021/08/14 05:35:54;;;;;;;;;;;;;;;30.54;36.34;100693.38;4303717;33;36554;-87
2021/08/14 05:38:22;;;;;;;;;;;;;;;30.53;36.24;100693.50;4315953;33;34216;-87
2021/08/14 05:40:49;;;;;;;;;;;;;;;30.80;35.57;100697.97;4313131;33;35949;-87
2021/08/14 05:43:17;;;;;;;;;;;;;;;30.46;36.02;100688.78;4313320;33;34621;-86
2021/08/14 05:45:45;;;;;;;;;;;;;;;30.53;35.85;100688.13;4315827;33;34591;-86
2021/08/14 05:48:12;;;;;;;;;;;;;;;30.86;34.72;100685.72;4315626;33;34316;-86
2021/08/14 05:50:39;;;;;;;;;;;;;;;31.20;33.84;100688.50;4303744;33;35523;-87
2021/08/14 05:53:07;;;;;;;;;;;;;;;31.55;32.93;100689.34;4316187;33;34646;-86
2021/08/14 05:55:35;;;;;;;;;;;;;;;31.04;33.23;100689.25;4315852;33;32752;-86
2021/08/14 05:58:03;;;;;;;;;;;;;;;30.55;34.24;100687.00;4303398;33;34026;-87
2021/08/14 06:00:31;;;;;;;;;;;;;;;30.64;34.36;100680.69;4303529;33;33431;-87
2021/08/14 06:02:59;;;;;;;;;;;;;;;31.20;33.56;100682.28;4303826;33;36371;-87
2021/08/14 06:05:26;;;;;;;;;;;;;;;30.95;34.27;100679.38;4304045;33;33138;-86
2021/08/14 06:07:54;;;;;;;;;;;;;;;31.79;32.78;100677.00;4304410;33;35077;-86
2021/08/14 06:10:22;;;;;;;;;;;;;;;31.88;32.76;100684.09;4316832;33;34438;-87
2021/08/14 06:12:49;;;;;;;;;;;;;;;31.07;34.29;100683.56;4304551;33;37118;-87
2021/08/14 06:15:17;;;;;;;;;;;;;;;31.56;33.43;100685.63;4316220;33;34316;-86
2021/08/14 06:17:45;;;;;;;;;;;;;;;32.03;32.58;100686.16;4316487;33;33477;-87
2021/08/14 06:20:13;;;;;;;;;;;;;;;32.12;31.85;100688.72;4304257;33;34061;-86
2021/08/14 06:22:41;;;;;;;;;;;;;;;31.87;31.37;100687.81;4304545;33;35000;-87
2021/08/14 06:25:09;;;;;;;;;;;;;;;32.21;30.62;100686.06;4316006;33;33517;-86
2021/08/14 06:27:37;;;;;;;;;;;;;;;31.98;30.62;100694.75;4316207;33;36058;-87
2021/08/14 06:30:05;;;;;;;;;;;;;;;32.39;30.29;100694.84;4303583;33;35455;-87
2021/08/14 06:32:33;;;;;;;;;;;;;;;32.05;30.98;100693.06;4303503;33;36373;-88
2021/08/14 06:35:01;;;;;;;;;;;;;;;31.85;31.03;100697.91;4303299;33;34163;-86
2021/08/14 06:37:28;;;;;;;;;;;;;;;31.81;30.40;100700.06;4304357;33;32741;-87
2021/08/14 06:39:56;;;;;;;;;;;;;;;32.25;29.89;100698.19;4310379;33;34403;-86
2021/08/14 06:42:24;;;;;;;;;;;;;;;32.07;29.87;100692.91;4300242;33;33493;-86
2021/08/14 06:44:51;;;;;;;;;;;;;;;32.37;29.66;100688.78;4315601;33;35012;-86
2021/08/14 06:47:19;;;;;;;;;;;;;;;32.97;28.83;100692.16;4315624;33;34131;-87
2021/08/14 06:49:47;;;;;;;;;;;;;;;32.83;29.08;100692.84;4303418;33;35570;-87
2021/08/14 06:52:16;;;;;;;;;;;;;;;31.95;30.12;100687.84;4303132;33;37269;-86
2021/08/14 06:54:44;;;;;;;;;;;;;;;33.06;28.10;100695.69;4315645;33;34938;-87
2021/08/14 06:57:11;;;;;;;;;;;;;;;32.56;28.91;100694.84;4315378;33;33541;-87
2021/08/14 06:59:41;;;;;;;;;;;;;;;32.14;29.41;100696.62;4303181;33;33588;-88
2021/08/14 07:02:09;;;;;;;;;;;;;;;32.77;28.61;100697.91;4314898;33;35388;-87
2021/08/14 07:04:37;;;;;;;;;;;;;;;32.52;28.93;100702.41;4303252;33;33538;-87
2021/08/14 07:07:05;;;;;;;;;;;;;;;33.16;27.80;100704.44;4315874;33;33955;-87
2021/08/14 07:09:35;;;;;;;;;;;;;;;32.86;28.26;100693.34;4315594;33;33467;-87
2021/08/14 07:12:03;;;;;;;;;;;;;;;33.81;26.79;100694.44;4303453;33;34746;-87
2021/08/14 07:14:31;;;;;;;;;;;;;;;33.16;27.80;100698.19;4315087;33;36263;-87
2021/08/14 07:16:59;;;;;;;;;;;;;;;33.17;27.60;100687.19;4303207;33;34310;-87
2021/08/14 07:19:27;;;;;;;;;;;;;;;33.10;27.89;100689.75;4315844;33;34285;-87
2021/08/14 07:21:55;;;;;;;;;;;;;;;33.36;27.63;100695.97;4303599;33;34252;-86
2021/08/14 07:24:23;;;;;;;;;;;;;;;33.09;27.84;100696.19;4316013;33;35577;-87
2021/08/14 07:26:50;;;;;;;;;;;;;;;33.45;27.46;100693.06;4303859;33;34533;-87
2021/08/14 07:29:18;;;;;;;;;;;;;;;34.15;26.42;100685.13;4315702;33;33389;-87
2021/08/14 07:31:45;;;;;;;;;;;;;;;33.66;27.02;100701.59;4315927;33;34659;-86
2021/08/14 07:34:13;;;;;;;;;;;;;;;33.99;26.52;100702.28;4315045;33;35238;-86
2021/08/14 07:36:41;;;;;;;;;;;;;;;33.94;26.70;100699.28;4303199;33;34172;-86
2021/08/14 07:39:09;;;;;;;;;;;;;;;33.55;27.18;100702.84;4315107;33;34995;-87
2021/08/14 07:41:36;;;;;;;;;;;;;;;34.16;26.45;100700.34;4314497;33;33152;-87
2021/08/14 07:44:04;;;;;;;;;;;;;;;33.75;26.97;100700.53;4315888;33;33905;-87
2021/08/14 07:46:47;;;;;;;;;;;;;;;34.45;26.13;100699.66;4315185;33;33417;-87
2021/08/14 07:49:15;;;;;;;;;;;;;;;33.67;27.28;100712.22;4314662;33;33829;-86
2021/08/14 07:51:42;;;;;;;;;;;;;;;33.85;26.94;100705.75;4302408;33;35127;-87
2021/08/14 07:54:10;;;;;;;;;;;;;;;34.64;26.09;100705.59;4315157;33;33286;-87
2021/08/14 07:56:37;;;;;;;;;;;;;;;34.50;26.16;100707.19;4314776;33;33048;-86
2021/08/14 07:59:05;;;;;;;;;;;;;;;34.76;25.89;100708.69;4283140;33;1038913;-87
2021/08/14 08:01:32;;;;;;;;;;;;;;;34.72;26.01;100702.78;4302598;33;35920;-87
2021/08/14 08:04:00;;;;;;;;;;;;;;;35.39;25.27;100697.59;4315138;33;34375;-87
2021/08/14 08:06:29;;;;;;;;;;;;;;;35.35;24.93;100696.28;4315123;33;33114;-87
2021/08/14 08:08:56;;;;;;;;;;;;;;;35.98;24.18;100699.41;4303206;33;35334;-87
2021/08/14 08:11:24;;;;;;;;;;;;;;;35.81;24.00;100701.47;4316339;33;34679;-87
2021/08/14 08:13:52;;;;;;;;;;;;;;;35.93;24.33;100696.44;4316349;33;34804;-87
2021/08/14 08:16:19;;;;;;;;;;;;;;;36.47;23.52;100697.81;4304291;33;34470;-87
2021/08/14 08:18:47;;;;;;;;;;;;;;;36.29;23.79;100692.81;4316484;33;34572;-87
2021/08/14 08:21:15;;;;;;;;;;;;;;;35.71;24.62;100695.50;4316321;33;34949;-87
2021/08/14 08:23:42;;;;;;;;;;;;;;;35.38;24.94;100698.63;4316581;33;34411;-87
2021/08/14 08:26:10;;;;;;;;;;;;;;;35.90;24.17;100692.22;4316241;33;33721;-87
2021/08/14 08:28:37;;;;;;;;;;;;;;;36.64;23.42;100690.22;4303886;33;33165;-87
2021/08/14 08:31:05;;;;;;;;;;;;;;;36.57;23.57;100692.91;4315827;33;34998;-87
2021/08/14 08:33:32;;;;;;;;;;;;;;;36.66;23.48;100685.47;4316337;33;34609;-86
2021/08/14 08:36:00;;;;;;;;;;;;;;;37.00;23.05;100689.28;4316174;33;33500;-87
2021/08/14 08:38:28;;;;;;;;;;;;;;;36.70;23.26;100684.03;4316049;33;34799;-87
2021/08/14 08:40:56;;;;;;;;;;;;;;;37.01;22.93;100680.09;4301648;33;35636;-86
2021/08/14 08:43:24;;;;;;;;;;;;;;;37.52;22.23;100683.53;4314465;33;34043;-87
2021/08/14 08:45:51;;;;;;;;;;;;;;;37.39;22.58;100682.44;4304093;33;34304;-86
2021/08/14 08:48:20;;;;;;;;;;;;;;;36.94;23.10;100674.63;4303877;33;33035;-87
2021/08/14 08:50:47;;;;;;;;;;;;;;;37.17;22.88;100672.66;4316219;33;34272;-87
2021/08/14 08:53:15;;;;;;;;;;;;;;;37.00;23.14;100672.97;4316325;33;35726;-86
2021/08/14 08:55:43;;;;;;;;;;;;;;;37.57;22.35;100668.28;4316139;33;33208;-87
2021/08/14 08:58:10;;;;;;;;;;;;;;;37.61;22.26;100663.28;4304037;33;32991;-87
2021/08/14 09:00:38;;;;;;;;;;;;;;;38.10;21.71;100664.88;4304638;33;33618;-87
2021/08/14 09:03:10;;;;;;;;;;;;;;;38.21;21.61;100663.44;4315888;33;34921;-86
2021/08/14 09:05:45;;;;;;;;;;;;;;;37.30;22.76;100655.59;4303759;33;35045;-87
2021/08/14 09:08:13;;;;;;;;;;;;;;;38.32;21.64;100647.56;4303908;33;35170;-87
2021/08/14 09:10:41;;;;;;;;;;;;;;;38.18;21.84;100655.69;4316212;33;33964;-87
2021/08/14 09:13:12;;;;;;;;;;;;;;;38.44;21.42;100648.62;4303889;33;34425;-88
2021/08/14 09:15:40;;;;;;;;;;;;;;;37.82;22.11;100651.44;4315819;33;35305;-87
2021/08/14 09:18:09;;;;;;;;;;;;;;;38.53;21.23;100641.94;4315853;33;33388;-87
2021/08/14 09:20:44;;;;;;;;;;;;;;;38.55;21.47;100639.00;4316388;33;34369;-87
2021/08/14 09:23:15;;;;;;;;;;;;;;;38.05;22.00;100642.06;4315995;33;34231;-87
2021/08/14 09:25:46;;;;;;;;;;;;;;;38.04;22.03;100640.41;4303300;33;35703;-87
2021/08/14 09:28:15;;;;;;;;;;;;;;;37.08;23.11;100637.53;4315633;33;35947;-88
2021/08/14 09:30:47;;;;;;;;;;;;;;;36.91;23.40;100641.59;4315527;33;33425;-87
2021/08/14 09:33:18;;;;;;;;;;;;;;;37.46;22.80;100638.97;4315316;33;34948;-87
2021/08/14 09:35:46;;;;;;;;;;;;;;;36.70;23.86;100645.19;4315926;33;35311;-88
2021/08/14 09:38:14;;;;;;;;;;;;;;;37.53;22.85;100639.00;4303211;33;33818;-87
2021/08/14 09:40:46;;;;;;;;;;;;;;;38.22;21.93;100629.75;4298757;33;33816;-87
2021/08/14 09:43:14;;;;;;;;;;;;;;;37.89;22.40;100633.25;4298192;33;34602;-87
2021/08/14 09:46:01;;;;;;;;;;;;;;;38.48;21.76;100630.84;4310675;33;33221;-87
2021/08/14 09:48:31;;;;;;;;;;;;;;;38.69;21.50;100618.88;4313925;33;34020;-87
2021/08/14 09:50:58;;;;;;;;;;;;;;;38.74;21.41;100620.97;4303419;33;35872;-88
2021/08/14 09:53:27;;;;;;;;;;;;;;;39.30;20.80;100613.28;4303673;33;33955;-87
2021/08/14 09:56:11;;;;;;;;;;;;;;;38.54;21.71;100619.06;4315568;33;36015;-87
2021/08/14 09:58:40;;;;;;;;;;;;;;;37.66;22.85;100621.91;4317093;33;34841;-87
2021/08/14 10:01:08;;;;;;;;;;;;;;;39.20;21.13;100602.84;4316030;33;34406;-87
2021/08/14 10:03:36;;;;;;;;;;;;;;;39.90;20.28;100604.78;4315615;33;34620;-88
2021/08/14 10:06:05;;;;;;;;;;;;;;;40.17;20.04;100596.41;4315507;33;34221;-87
2021/08/14 10:08:32;;;;;;;;;;;;;;;40.62;19.56;100595.38;4315586;33;34290;-87
2021/08/14 10:11:01;;;;;;;;;;;;;;;39.43;20.90;100591.41;4315479;33;35412;-87
2021/08/14 10:13:29;;;;;;;;;;;;;;;39.69;20.76;100587.72;4315285;33;34812;-87
2021/08/14 10:15:57;;;;;;;;;;;;;;;39.79;20.81;100598.12;4315505;33;34379;-87
2021/08/14 10:18:26;;;;;;;;;;;;;;;39.11;21.57;100596.78;4316850;33;34952;-86
2021/08/14 10:20:53;;;;;;;;;;;;;;;38.95;21.73;100583.66;4315798;33;34835;-87
2021/08/14 10:23:22;;;;;;;;;;;;;;;39.34;21.50;100587.25;4303242;33;35344;-87
2021/08/14 10:26:00;;;;;;;;;;;;;;;39.88;20.67;100590.53;4303586;33;35684;-88
2021/08/14 10:28:47;;;;;;;;;;;;;;;39.09;21.66;100583.38;4315923;33;32905;-87
2021/08/14 10:31:30;;;;;;;;;;;;;;;39.03;21.88;100583.41;4315352;33;34342;-88
2021/08/14 10:33:59;;;;;;;;;;;;;;;39.13;21.80;100572.84;4315413;33;34142;-87
2021/08/14 10:36:27;;;;;;;;;;;;;;;39.09;21.92;100579.78;4314560;33;32080;-87
2021/08/14 10:38:54;;;;;;;;;;;;;;;38.71;22.28;100575.94;4315446;33;34322;-87
2021/08/14 10:41:36;;;;;;;;;;;;;;;38.78;22.00;100569.66;4301239;33;33750;-88
2021/08/14 10:44:04;;;;;;;;;;;;;;;38.65;22.17;100563.16;4303301;33;36120;-88
2021/08/14 10:46:42;;;;;;;;;;;;;;;39.79;20.91;100562.69;4303066;33;34730;-87
2021/08/14 10:49:20;;;;;;;;;;;;;;;38.58;22.47;100567.78;4303100;33;35246;-87
2021/08/14 10:51:48;;;;;;;;;;;;;;;39.47;21.21;100561.84;4315451;33;34535;-87
2021/08/14 10:54:28;;;;;;;;;;;;;;;39.76;20.74;100557.69;4315494;33;35005;-87
2021/08/14 10:56:56;;;;;;;;;;;;;;;39.86;20.73;100558.03;4315338;33;33983;-88
2021/08/14 11:02:04;;;;;;;;;;;;;;;39.20;21.42;100551.09;4316904;33;33983;-87
2021/08/14 11:04:35;;;;;;;;;;;;;;;39.92;20.53;100548.13;4315392;33;35138;-88
2021/08/14 11:07:21;;;;;;;;;;;;;;;40.59;19.79;100543.97;4315800;33;34807;-87
2021/08/14 11:09:58;;;;;;;;;;;;;;;40.77;19.58;100541.25;4315742;33;33415;-88
2021/08/14 11:12:39;;;;;;;;;;;;;;;40.39;19.95;100531.34;4315440;33;35624;-88
2021/08/14 11:15:07;;;;;;;;;;;;;;;41.50;18.74;100524.94;4315500;33;34207;-88
2021/08/14 11:17:36;;;;;;;;;;;;;;;42.02;18.15;100527.09;4315268;33;33361;-87
2021/08/14 11:20:04;;;;;;;;;;;;;;;42.31;17.86;100522.59;4315449;33;33546;-87
2021/08/14 11:22:32;;;;;;;;;;;;;;;42.42;17.84;100520.06;4315550;33;34369;-87
2021/08/14 11:25:04;;;;;;;;;;;;;;;41.61;18.73;100518.69;4315667;33;34549;-87
2021/08/14 11:27:34;;;;;;;;;;;;;;;41.35;18.99;100517.16;4304054;33;32674;-87
2021/08/14 11:30:04;;;;;;;;;;;;;;;39.91;20.77;100519.16;4303109;33;34859;-87
2021/08/14 11:32:33;;;;;;;;;;;;;;;39.63;20.92;100516.88;4315727;33;34034;-87
2021/08/14 11:35:02;;;;;;;;;;;;;;;40.92;19.51;100504.50;4303369;33;33254;-88
2021/08/14 11:37:30;;;;;;;;;;;;;;;40.46;19.91;100504.81;4303027;33;33203;-87
2021/08/14 11:39:58;;;;;;;;;;;;;;;39.70;20.85;100504.87;4298061;33;33735;-87
2021/08/14 11:42:27;;;;;;;;;;;;;;;40.21;20.36;100508.44;4314866;33;34548;-87
2021/08/14 11:44:56;;;;;;;;;;;;;;;40.92;19.48;100501.78;4304205;33;33679;-87
2021/08/14 11:47:31;;;;;;;;;;;;;;;40.99;19.50;100497.91;4303811;33;32994;-88
2021/08/14 11:50:00;;;;;;;;;;;;;;;39.86;20.89;100500.75;4315878;33;34504;-87
2021/08/14 11:52:28;;;;;;;;;;;;;;;40.10;20.84;100495.50;4316169;33;34787;-87
2021/08/14 11:54:58;;;;;;;;;;;;;;;40.41;20.36;100496.47;4316140;33;35829;-88
2021/08/14 11:57:26;;;;;;;;;;;;;;;40.44;19.99;100493.28;4304247;33;33900;-87
2021/08/14 11:59:54;;;;;;;;;;;;;;;40.87;19.39;100483.31;4315308;33;34141;-87
2021/08/14 12:02:25;;;;;;;;;;;;;;;41.23;19.07;100482.44;4304609;33;35135;-87
2021/08/14 12:04:53;;;;;;;;;;;;;;;41.50;18.82;100481.19;4315177;33;34055;-87
2021/08/14 12:07:21;;;;;;;;;;;;;;;41.34;19.09;100469.00;4315536;33;33062;-87
2021/08/14 12:09:49;;;;;;;;;;;;;;;41.92;18.53;100477.59;4302578;33;34045;-88
2021/08/14 12:12:20;;;;;;;;;;;;;;;41.68;18.73;100483.03;4302504;33;35874;-87
2021/08/14 12:14:48;;;;;;;;;;;;;;;41.32;18.74;100473.91;4302122;33;35288;-88
2021/08/14 12:17:16;;;;;;;;;;;;;;;41.57;18.56;100473.75;4314572;33;34367;-87
2021/08/14 12:19:47;;;;;;;;;;;;;;;40.13;20.23;100465.06;4314670;33;33259;-87
2021/08/14 12:22:16;;;;;;;;;;;;;;;40.10;20.21;100465.50;4314426;33;34894;-87
2021/08/14 12:24:45;;;;;;;;;;;;;;;39.76;20.60;100467.69;4302093;33;33845;-88
2021/08/14 12:27:21;;;;;;;;;;;;;;;39.80;20.54;100454.47;4302256;33;34078;-86
2021/08/14 12:29:49;;;;;;;;;;;;;;;39.96;20.27;100453.87;4314588;33;35101;-87
2021/08/14 12:32:17;;;;;;;;;;;;;;;39.06;21.95;100453.03;4314813;33;35012;-87
2021/08/14 12:34:44;;;;;;;;;;;;;;;39.54;20.80;100439.94;4314420;33;35114;-87
2021/08/14 12:37:13;;;;;;;;;;;;;;;39.49;20.90;100439.78;4302209;33;34643;-87
2021/08/14 12:39:56;;;;;;;;;;;;;;;40.81;19.03;100446.00;4309358;33;35470;-87
2021/08/14 12:42:28;;;;;;;;;;;;;;;41.48;18.02;100439.63;4299017;33;35151;-87
2021/08/14 12:44:57;;;;;;;;;;;;;;;41.39;18.04;100444.56;4314089;33;35043;-87